Time;durP1;ratioP1;P1;durP2;ratioP2;P2;SDS_P1;SDS_P2;PMS_P1;PMS_P2;Temp;Humidity;BMP_temperature;BMP_pressure;BME280_temperature;BME280_humidity;BME280_pressure;Samples;Min_cycle;Max_cycle;Signal;HPM_P1;HPM_P2
2023/03/13 00:04:16;;;;;;;3.27;1.33;;;;;;;16.45;54.73;96283.44;10417429;28;20052;-34
2023/03/13 00:09:16;;;;;;;2.80;1.30;;;;;;;16.45;54.98;96280.91;10428856;28;20497;-34
2023/03/13 00:14:16;;;;;;;4.28;1.23;;;;;;;16.44;54.81;96272.47;10417544;28;20033;-37
2023/03/13 00:19:17;;;;;;;3.57;1.00;;;;;;;16.46;55.46;96263.19;10418054;28;20481;-33
2023/03/13 00:24:17;;;;;;;4.67;1.23;;;;;;;16.44;54.61;96264.91;10418721;28;20071;-34
2023/03/13 00:29:17;;;;;;;1.70;0.80;;;;;;;16.45;54.64;96251.41;10422171;28;20808;-35
2023/03/13 00:34:18;;;;;;;3.10;1.07;;;;;;;16.46;55.56;96248.03;10423051;28;20029;-35
2023/03/13 00:39:18;;;;;;;3.67;1.10;;;;;;;16.45;55.90;96235.44;10429226;28;20021;-34
2023/03/13 00:44:19;;;;;;;2.57;1.00;;;;;;;16.46;55.24;96237.13;10418508;28;20029;-34
2023/03/13 00:49:21;;;;;;;1.67;0.98;;;;;;;16.44;55.14;96229.53;10425974;28;20300;-34
2023/03/13 00:54:21;;;;;;;4.45;1.23;;;;;;;16.45;55.25;96233.72;10427758;28;20041;-34
2023/03/13 00:59:22;;;;;;;4.27;1.13;;;;;;;16.39;54.64;96231.22;10423270;28;20026;-33
2023/03/13 01:04:22;;;;;;;5.30;1.83;;;;;;;16.46;54.81;96242.16;10426142;28;20845;-34
2023/03/13 01:09:23;;;;;;;1.27;0.70;;;;;;;16.46;54.81;96230.34;10430415;28;20324;-35
2023/03/13 01:14:24;;;;;;;2.13;0.80;;;;;;;16.40;54.85;96227.84;10428552;28;20467;-33
2023/03/13 01:19:27;;;;;;;3.58;1.35;;;;;;;16.44;54.44;96234.56;10424740;28;20284;-33
2023/03/13 01:24:27;;;;;;;4.20;1.02;;;;;;;16.42;54.35;96230.34;10429926;28;20056;-34
2023/03/13 01:29:27;;;;;;;4.55;1.10;;;;;;;16.43;53.93;96212.69;10428956;28;20454;-34
2023/03/13 01:34:28;;;;;;;3.55;1.20;;;;;;;16.42;54.29;96208.47;10433289;28;20501;-37
2023/03/13 01:39:29;;;;;;;4.18;1.10;;;;;;;16.44;54.76;96211.00;10427940;28;20037;-34
2023/03/13 01:44:47;;;;;;;3.87;1.20;;;;;;;16.44;54.08;96214.38;10427282;28;20032;-34
2023/03/13 01:49:49;;;;;;;2.25;0.82;;;;;;;16.42;55.09;96198.38;10424381;28;20040;-34
2023/03/13 01:55:20;;;;;;;1.90;0.80;;;;;;;16.42;55.67;96183.22;10425317;28;20378;-34
2023/03/13 02:00:28;;;;;;;2.85;1.10;;;;;;;16.43;55.17;96164.69;10434100;28;20028;-35
2023/03/13 02:05:30;;;;;;;1.88;0.70;;;;;;;16.43;54.82;96149.53;10442760;28;20037;-39
2023/03/13 02:10:33;;;;;;;4.38;1.00;;;;;;;16.44;54.61;96143.63;10427172;28;20021;-33
2023/03/13 02:15:33;;;;;;;2.60;0.93;;;;;;;16.42;54.28;96130.16;10439002;28;20082;-35
2023/03/13 02:20:39;;;;;;;6.90;1.02;;;;;;;16.37;54.48;96106.59;10445175;28;20065;-34
2023/03/13 02:25:47;;;;;;;2.40;1.05;;;;;;;16.42;54.15;96109.97;10433508;28;20493;-35
2023/03/13 02:30:54;;;;;;;2.40;0.80;;;;;;;16.42;54.36;96122.59;10423276;28;20094;-34
2023/03/13 02:35:56;;;;;;;3.78;1.25;;;;;;;16.40;54.44;96111.66;10432986;28;20401;-34
2023/03/13 02:41:00;;;;;;;2.47;0.73;;;;;;;16.40;54.21;96101.53;10420942;28;20515;-35
2023/03/13 02:46:08;;;;;;;1.85;0.70;;;;;;;16.41;54.47;96077.09;10425787;28;20029;-33
2023/03/13 02:51:21;;;;;;;3.13;1.00;;;;;;;16.40;54.15;96081.34;10433308;28;20025;-33
2023/03/13 02:56:24;;;;;;;3.72;1.00;;;;;;;16.42;54.13;96088.88;10441201;28;20087;-33
2023/03/13 03:01:25;;;;;;;1.45;0.68;;;;;;;16.37;54.01;96086.38;10416007;28;20417;-32
2023/03/13 03:06:25;;;;;;;5.55;1.70;;;;;;;16.39;54.95;96074.59;10432055;28;20036;-34
2023/03/13 03:11:27;;;;;;;2.42;0.95;;;;;;;16.34;55.75;96071.19;10434444;28;20124;-35
2023/03/13 03:16:33;;;;;;;2.28;0.90;;;;;;;16.43;55.01;96075.41;10438034;28;20026;-33
2023/03/13 03:21:34;;;;;;;1.38;0.55;;;;;;;16.42;54.99;96077.13;10430697;28;20041;-34
2023/03/13 03:26:35;;;;;;;3.53;0.80;;;;;;;16.41;54.52;96080.50;10423428;28;20421;-34
2023/03/13 03:31:39;;;;;;;2.08;1.05;;;;;;;16.42;54.38;96079.63;10425171;28;20026;-33
2023/03/13 03:36:39;;;;;;;4.30;0.77;;;;;;;16.42;54.52;96064.47;10426140;28;20396;-33
2023/03/13 03:41:39;;;;;;;2.70;0.93;;;;;;;16.40;53.87;96058.59;10425237;28;20034;-34
2023/03/13 03:46:40;;;;;;;1.92;0.90;;;;;;;16.40;54.36;96056.06;10431530;28;20040;-34
2023/03/13 03:51:41;;;;;;;2.30;0.90;;;;;;;16.41;54.40;96070.38;10430649;28;20556;-35
2023/03/13 03:56:41;;;;;;;3.88;0.88;;;;;;;16.41;54.32;96052.69;10419594;28;20293;-35
2023/03/13 04:01:43;;;;;;;2.33;0.75;;;;;;;16.39;54.13;96067.03;10428612;28;20033;-35
2023/03/13 04:06:44;;;;;;;4.65;1.10;;;;;;;16.38;54.58;96055.22;10426213;28;20406;-34
2023/03/13 04:11:45;;;;;;;2.33;0.60;;;;;;;16.41;54.50;96062.81;10420748;28;20037;-34
2023/03/13 04:16:46;;;;;;;1.55;0.77;;;;;;;16.40;54.12;96035.00;10424836;28;20031;-34
2023/03/13 04:21:51;;;;;;;1.88;0.77;;;;;;;16.40;54.46;96037.53;10428815;28;20033;-35
2023/03/13 04:26:53;;;;;;;3.95;0.93;;;;;;;16.39;55.55;96016.50;10424158;28;20025;-35
2023/03/13 04:31:54;;;;;;;1.77;0.70;;;;;;;16.42;55.35;96034.16;10417327;28;20037;-34
2023/03/13 04:37:17;;;;;;;2.97;0.80;;;;;;;16.42;55.03;96029.13;10431437;28;20053;-38
2023/03/13 04:42:36;;;;;;;1.20;0.52;;;;;;;16.43;54.29;96024.88;10424373;28;20033;-34
2023/03/13 04:48:13;;;;;;;1.58;0.63;;;;;;;16.41;54.60;96016.47;10429105;28;20095;-36
2023/03/13 04:53:36;;;;;;;5.05;2.53;;;;;;;16.39;54.93;96013.97;10424605;28;20374;-34
2023/03/13 04:58:52;;;;;;;2.13;0.98;;;;;;;16.38;54.87;96022.38;10426049;28;20072;-33
2023/03/13 05:04:19;;;;;;;3.13;0.50;;;;;;;16.40;54.33;96025.75;10436377;28;20032;-34
2023/03/13 05:09:39;;;;;;;1.60;0.70;;;;;;;16.43;54.43;96029.94;10420356;28;20051;-34
2023/03/13 05:15:12;;;;;;;3.15;1.15;;;;;;;16.40;54.27;96013.13;10431818;28;20596;-34
2023/03/13 05:20:37;;;;;;;2.45;0.75;;;;;;;16.44;54.44;96017.31;10438889;28;20036;-34
2023/03/13 05:25:47;;;;;;;3.67;1.10;;;;;;;16.46;54.75;96004.69;10420740;28;20304;-34
2023/03/13 05:30:55;;;;;;;3.08;0.93;;;;;;;16.45;54.56;96008.06;10438348;28;20033;-34
2023/03/13 05:36:24;;;;;;;4.05;0.80;;;;;;;16.44;54.84;96002.16;10439639;28;20449;-34
2023/03/13 05:41:30;;;;;;;4.03;1.73;;;;;;;16.48;53.48;95998.78;10450965;28;20041;-34
2023/03/13 05:46:49;;;;;;;6.68;0.90;;;;;;;16.49;55.97;95997.09;10446724;28;20500;-34
2023/03/13 05:52:07;;;;;;;5.43;1.20;;;;;;;16.48;56.31;95993.75;10427534;28;20500;-35
2023/03/13 05:57:38;;;;;;;5.32;1.15;;;;;;;16.47;55.93;95997.13;10435292;28;20024;-34
2023/03/13 06:02:49;;;;;;;5.85;1.08;;;;;;;16.52;55.47;95995.38;10434256;28;20033;-34
2023/03/13 06:07:55;;;;;;;5.32;1.20;;;;;;;16.50;55.68;95986.97;10419298;28;20041;-32
2023/03/13 06:12:56;;;;;;;7.73;1.37;;;;;;;16.53;56.08;95996.25;10423492;28;20073;-35
2023/03/13 06:17:59;;;;;;;3.25;1.00;;;;;;;16.51;55.83;96016.44;10433569;28;20330;-36
2023/03/13 06:23:00;;;;;;;5.37;1.30;;;;;;;16.45;53.11;95993.72;10429361;28;20729;-34
2023/03/13 06:28:00;;;;;;;9.33;2.70;;;;;;;16.53;55.64;96011.41;10421369;28;20392;-37
2023/03/13 06:33:01;;;;;;;12.47;1.50;;;;;;;16.45;56.28;95993.72;10434178;28;20039;-35
2023/03/13 06:38:01;;;;;;;4.32;1.58;;;;;;;16.48;55.95;95982.78;10432613;28;20091;-37
2023/03/13 06:43:02;;;;;;;7.30;1.00;;;;;;;16.49;56.02;95984.44;10430365;28;20048;-37
2023/03/13 06:48:03;;;;;;;9.15;1.52;;;;;;;16.47;56.56;95999.63;10437785;28;20036;-34
2023/03/13 06:53:04;;;;;;;4.50;0.82;;;;;;;16.47;55.70;95999.63;10424408;28;20043;-34
2023/03/13 06:58:04;;;;;;;3.63;1.25;;;;;;;16.47;55.71;96004.69;10429113;28;20091;-35
2023/03/13 07:03:05;;;;;;;5.50;1.20;;;;;;;16.48;57.25;96029.09;10431433;28;20129;-35
2023/03/13 07:08:05;;;;;;;5.13;1.27;;;;;;;16.51;57.30;96033.28;10417257;28;20098;-34
2023/03/13 07:13:06;;;;;;;4.05;1.05;;;;;;;16.48;56.27;96046.78;10420674;28;20386;-33
2023/03/13 07:18:06;;;;;;;7.28;1.35;;;;;;;16.48;56.29;96049.31;10422227;28;20562;-34
2023/03/13 07:23:06;;;;;;;8.20;1.87;;;;;;;16.48;56.47;96043.41;10419196;28;20463;-34
2023/03/13 07:28:07;;;;;;;2.75;0.95;;;;;;;16.47;55.78;96042.59;10426598;28;20029;-35
2023/03/13 07:33:07;;;;;;;4.73;1.03;;;;;;;16.44;55.87;96029.13;10437522;28;20115;-35
2023/03/13 07:38:08;;;;;;;2.43;0.73;;;;;;;16.45;56.37;96054.34;10429875;28;20038;-35
2023/03/13 07:43:08;;;;;;;4.33;1.83;;;;;;;16.45;56.09;96033.31;10429779;28;20033;-38
2023/03/13 07:48:08;;;;;;;4.00;1.13;;;;;;;16.44;55.73;96035.00;10429651;28;20838;-34
2023/03/13 07:53:09;;;;;;;3.13;0.80;;;;;;;16.43;55.68;96025.75;10431261;28;20125;-34
2023/03/13 07:58:09;;;;;;;6.32;1.23;;;;;;;16.42;54.50;96019.00;10425208;28;20029;-34
2023/03/13 08:03:10;;;;;;;1.93;0.93;;;;;;;16.43;55.40;96012.25;10430375;28;20059;-34
2023/03/13 08:08:10;;;;;;;1.33;0.63;;;;;;;16.42;55.16;95991.22;10416883;28;20044;-34
2023/03/13 08:13:10;;;;;;;3.87;1.17;;;;;;;16.39;55.61;95987.88;10420901;28;20519;-34
2023/03/13 08:18:11;;;;;;;6.63;0.90;;;;;;;16.42;56.99;95988.69;10423550;28;20294;-34
2023/03/13 08:23:11;;;;;;;3.25;0.73;;;;;;;16.46;57.25;95982.78;10436321;28;20297;-34
2023/03/13 08:28:12;;;;;;;2.53;1.40;;;;;;;16.47;57.13;95981.97;10435815;28;20408;-34
2023/03/13 08:33:12;;;;;;;4.57;0.60;;;;;;;16.47;56.13;95968.47;10431069;28;20386;-35
2023/03/13 08:38:12;;;;;;;3.30;0.70;;;;;;;16.42;54.96;95967.63;10435108;28;20022;-33
2023/03/13 08:43:13;;;;;;;1.80;0.73;;;;;;;16.43;55.21;95970.16;10444427;28;20043;-34
2023/03/13 08:48:13;;;;;;;2.47;0.97;;;;;;;16.42;53.16;95958.38;10436790;28;20068;-33
2023/03/13 08:53:13;;;;;;;2.40;0.90;;;;;;;16.43;54.79;95944.06;10429440;28;20037;-34
2023/03/13 08:58:14;;;;;;;1.23;0.70;;;;;;;16.41;55.42;95941.56;10424894;28;20021;-38
2023/03/13 09:03:14;;;;;;;1.87;0.50;;;;;;;16.38;52.15;95926.38;10427775;28;20033;-35
2023/03/13 09:08:14;;;;;;;3.05;0.60;;;;;;;16.41;53.47;95931.44;10432127;28;20029;-35
2023/03/13 09:13:15;;;;;;;2.67;0.80;;;;;;;16.42;54.35;95920.50;10437613;28;20060;-34
2023/03/13 09:18:15;;;;;;;1.53;0.60;;;;;;;16.42;51.00;95915.44;10443501;28;20279;-34
2023/03/13 09:23:16;;;;;;;0.63;0.30;;;;;;;16.42;50.37;95907.88;10437187;28;20044;-34
2023/03/13 09:28:17;;;;;;;2.75;0.60;;;;;;;16.37;50.17;95884.28;10434531;28;20040;-35
2023/03/13 09:33:19;;;;;;;1.63;0.47;;;;;;;16.44;49.44;95888.47;10421038;28;20033;-34
2023/03/13 09:38:20;;;;;;;1.23;0.50;;;;;;;16.45;56.37;95882.56;10426167;28;20047;-38
2023/03/13 09:43:36;;;;;;;2.35;0.73;;;;;;;16.48;56.48;95887.63;10443428;28;20037;-34
2023/03/13 09:48:46;;;;;;;1.98;0.40;;;;;;;16.49;56.80;95843.81;10440023;28;20102;-33
2023/03/13 09:53:52;;;;;;;4.03;0.80;;;;;;;16.45;55.65;95851.44;10423635;28;20049;-34
2023/03/13 09:58:54;;;;;;;;;;;;;;;16.42;52.95;95832.09;10439930;28;20401;-39
2023/03/13 10:04:04;;;;;;;0.80;0.70;;;;;;;16.41;51.16;95832.94;10440074;28;19939;-34
2023/03/13 10:09:19;;;;;;;1.10;0.75;;;;;;;16.42;51.70;95805.97;10450756;28;20123;-33
2023/03/13 10:14:29;;;;;;;1.83;0.50;;;;;;;16.42;50.38;95816.94;10435103;28;20037;-34
2023/03/13 10:19:36;;;;;;;1.38;0.50;;;;;;;16.43;50.97;95812.69;10431444;28;20108;-34
2023/03/13 10:24:43;;;;;;;1.23;0.38;;;;;;;16.43;50.13;95803.44;10447786;28;20163;-35
2023/03/13 10:29:44;;;;;;;2.15;0.57;;;;;;;16.42;51.70;95786.63;10447592;28;20508;-34
2023/03/13 10:35:05;;;;;;;0.68;0.38;;;;;;;16.42;50.32;95768.94;10434968;28;20030;-34
2023/03/13 10:40:26;;;;;;;0.65;0.30;;;;;;;16.43;49.99;95762.16;10441005;28;20052;-35
2023/03/13 10:45:31;;;;;;;0.52;0.40;;;;;;;16.42;51.52;95736.09;10425001;28;20397;-34
2023/03/13 10:50:33;;;;;;;1.92;0.73;;;;;;;16.41;51.81;95724.31;10431491;28;20037;-34
2023/03/13 10:55:33;;;;;;;1.08;0.55;;;;;;;16.45;56.17;95720.09;10421501;28;20034;-35
2023/03/13 11:00:37;;;;;;;0.97;0.67;;;;;;;16.43;56.69;95679.66;10438034;28;20432;-34
2023/03/13 11:05:42;;;;;;;1.92;0.50;;;;;;;16.50;56.44;95688.88;10431176;28;20493;-35
2023/03/13 11:10:57;;;;;;;0.75;0.43;;;;;;;16.47;55.91;95676.28;10421175;28;20094;-35
2023/03/13 11:16:05;;;;;;;1.15;0.40;;;;;;;16.44;50.97;95670.41;10426379;28;20037;-34
2023/03/13 11:21:05;;;;;;;1.35;0.40;;;;;;;16.42;52.59;95657.78;10417413;28;20060;-33
2023/03/13 11:26:23;;;;;;;3.88;0.65;;;;;;;16.41;54.14;95640.97;10431032;28;20467;-34
2023/03/13 11:31:47;;;;;;;0.70;0.38;;;;;;;16.43;50.13;95639.25;10430997;28;20045;-37
2023/03/13 11:37:04;;;;;;;0.85;0.40;;;;;;;16.45;51.83;95631.66;10427215;28;20034;-34
2023/03/13 11:42:30;;;;;;;0.30;0.30;;;;;;;16.45;50.65;95601.34;10429446;28;20148;-34
2023/03/13 11:47:58;;;;;;;0.73;0.30;;;;;;;16.45;51.71;95604.69;10425045;28;20030;-34
2023/03/13 11:53:21;;;;;;;6.80;0.93;;;;;;;16.45;50.25;95599.66;10425225;28;20095;-35
2023/03/13 11:58:36;;;;;;;2.38;0.75;;;;;;;16.46;49.99;95581.13;10430695;28;20080;-33
2023/03/13 12:04:02;;;;;;;2.38;0.40;;;;;;;16.49;50.39;95565.94;10429902;28;20136;-34
2023/03/13 12:09:14;;;;;;;3.13;0.85;;;;;;;16.50;49.84;95556.66;10433979;28;20037;-35
2023/03/13 12:14:21;;;;;;;3.47;1.38;;;;;;;16.53;57.42;95552.41;10435871;28;20045;-34
2023/03/13 12:19:32;;;;;;;6.07;0.70;;;;;;;16.56;57.80;95524.59;10426557;28;20460;-34
2023/03/13 12:24:39;;;;;;;3.22;0.57;;;;;;;16.56;57.04;95522.09;10443770;28;20043;-33
2023/03/13 12:29:52;;;;;;;2.08;0.47;;;;;;;16.53;51.91;95496.84;10426218;28;20032;-37
2023/03/13 12:35:06;;;;;;;2.70;0.60;;;;;;;16.53;51.22;95461.47;10425619;28;20037;-34
2023/03/13 12:40:27;;;;;;;5.35;0.40;;;;;;;16.52;50.34;95459.81;10421605;28;20036;-33
2023/03/13 12:45:28;;;;;;;2.05;0.40;;;;;;;16.52;50.40;95449.69;10411725;28;20044;-33
2023/03/13 12:51:00;;;;;;;3.55;0.63;;;;;;;16.53;50.20;95433.69;10437653;28;20459;-35
2023/03/13 12:56:29;;;;;;;2.47;0.50;;;;;;;16.51;50.02;95415.19;10426182;28;20420;-35
2023/03/13 13:01:35;;;;;;;4.20;0.40;;;;;;;16.48;49.88;95395.03;10417514;28;20060;-33
2023/03/13 13:06:54;;;;;;;7.20;2.50;;;;;;;16.50;49.83;95395.84;10423945;28;20040;-36
2023/03/13 13:11:57;;;;;;;5.78;0.57;;;;;;;16.49;49.39;95379.00;10430203;28;20476;-34
2023/03/13 13:17:23;;;;;;;3.70;0.85;;;;;;;16.48;50.01;95362.19;10432163;28;20037;-33
2023/03/13 13:22:35;;;;;;;4.03;0.63;;;;;;;16.48;49.81;95352.09;10430906;28;20456;-34
2023/03/13 13:27:36;;;;;;;0.90;0.40;;;;;;;16.49;49.99;95341.13;10434148;28;20120;-34
2023/03/13 13:32:40;;;;;;;6.85;1.40;;;;;;;16.56;57.77;95334.28;10429890;28;20460;-34
2023/03/13 13:37:41;;;;;;;5.72;0.88;;;;;;;16.59;58.06;95332.56;10429642;28;20030;-34
2023/03/13 13:42:48;;;;;;;6.35;0.93;;;;;;;16.56;57.35;95330.09;10430635;28;20477;-35
2023/03/13 13:47:49;;;;;;;2.58;0.52;;;;;;;16.48;52.53;95316.72;10429022;28;20088;-34
2023/03/13 13:52:50;;;;;;;2.22;0.30;;;;;;;16.50;51.24;95304.06;10434669;28;20543;-34
2023/03/13 13:58:05;;;;;;;6.85;0.80;;;;;;;16.49;50.80;95309.97;10426002;28;20412;-34
2023/03/13 14:03:18;;;;;;;1.98;1.13;;;;;;;16.47;50.20;95304.97;10435711;28;20037;-35
2023/03/13 14:08:23;;;;;;;3.40;0.47;;;;;;;16.48;50.31;95290.63;10423671;28;20044;-34
2023/03/13 14:13:23;;;;;;;0.85;0.15;;;;;;;16.47;50.18;95278.84;10431883;28;20040;-34
2023/03/13 14:18:27;;;;;;;2.08;0.30;;;;;;;16.47;49.89;95274.66;10425136;28;20109;-34
2023/03/13 14:23:31;;;;;;;1.75;0.52;;;;;;;16.45;50.08;95276.34;10423828;28;20033;-34
2023/03/13 14:28:32;;;;;;;0.93;0.40;;;;;;;16.40;49.76;95254.53;10421814;28;20041;-34
2023/03/13 14:33:33;;;;;;;2.00;0.50;;;;;;;16.46;49.97;95251.94;10421789;28;20451;-34
2023/03/13 14:38:33;;;;;;;1.15;0.22;;;;;;;16.45;49.65;95251.09;10440609;28;20056;-34
2023/03/13 14:43:39;;;;;;;0.80;0.50;;;;;;;16.50;50.22;95233.31;10428546;28;20140;-34
2023/03/13 14:48:40;;;;;;;2.83;0.70;;;;;;;16.56;57.35;95218.94;10433526;28;20341;-35
2023/03/13 14:53:52;;;;;;;3.17;0.45;;;;;;;16.57;57.46;95207.97;10429134;28;20555;-34
2023/03/13 14:58:53;;;;;;;1.00;0.38;;;;;;;16.58;56.70;95207.09;10424062;28;20045;-33
2023/03/13 15:03:53;;;;;;;3.15;1.13;;;;;;;16.58;51.40;95176.78;10435440;28;20037;-34
2023/03/13 15:09:15;;;;;;;8.53;0.77;;;;;;;16.56;52.45;95152.41;10427736;28;20029;-34
2023/03/13 15:14:36;;;;;;;7.68;1.15;;;;;;;16.57;50.73;95138.91;10434132;28;20056;-34
2023/03/13 15:19:37;;;;;;;6.22;0.88;;;;;;;16.53;50.36;95125.50;10427052;28;20712;-33
2023/03/13 15:24:37;;;;;;;3.10;0.70;;;;;;;16.53;49.85;95096.91;10442177;28;20095;-34
2023/03/13 15:29:37;;;;;;;3.37;0.60;;;;;;;16.51;49.17;95094.38;10425643;28;20038;-34
2023/03/13 15:34:38;;;;;;;3.67;0.73;;;;;;;16.47;49.57;95072.59;10423157;28;20037;-34
2023/03/13 15:39:38;;;;;;;4.30;0.70;;;;;;;16.49;49.18;95080.97;10418744;28;20022;-33
2023/03/13 15:44:39;;;;;;;2.80;0.80;;;;;;;16.54;49.60;95079.16;10425790;28;20412;-34
2023/03/13 15:49:39;;;;;;;3.93;0.80;;;;;;;16.56;49.36;95076.63;10426927;28;20037;-35
2023/03/13 15:54:39;;;;;;;2.83;0.60;;;;;;;16.58;49.45;95054.69;10425460;28;20033;-34
2023/03/13 15:59:40;;;;;;;8.70;0.90;;;;;;;16.58;49.20;95040.38;10433858;28;20082;-34
2023/03/13 16:04:42;;;;;;;14.73;1.77;;;;;;;16.69;51.80;95027.53;10426874;28;20060;-34
2023/03/13 16:09:43;;;;;;;21.45;2.42;;;;;;;16.82;57.23;95022.19;10418907;28;20033;-33
2023/03/13 16:14:43;;;;;;;13.38;1.75;;;;;;;16.80;54.29;95001.16;10424173;28;20037;-36
2023/03/13 16:19:45;;;;;;;5.57;1.27;;;;;;;16.69;49.99;94980.34;10428753;28;20034;-35
2023/03/13 16:24:45;;;;;;;4.45;1.52;;;;;;;16.63;50.05;94951.88;10433209;28;20033;-36
2023/03/13 16:29:46;;;;;;;6.43;1.87;;;;;;;16.68;50.24;94945.84;10423326;28;20033;-34
2023/03/13 16:34:46;;;;;;;4.43;1.30;;;;;;;16.67;50.97;94945.88;10418674;28;20029;-33
2023/03/13 16:39:47;;;;;;;11.37;2.17;;;;;;;16.66;49.82;94942.53;10439263;28;20115;-34
2023/03/13 16:44:47;;;;;;;7.45;3.22;;;;;;;16.66;49.81;94942.53;10432845;28;20033;-34
2023/03/13 16:49:47;;;;;;;17.13;3.70;;;;;;;16.62;51.70;94928.28;10431819;28;20087;-34
2023/03/13 16:54:48;;;;;;;13.52;3.22;;;;;;;16.63;51.23;94907.22;10437148;28;20587;-35
2023/03/13 16:59:50;;;;;;;13.00;3.07;;;;;;;16.62;50.84;94895.44;10445984;28;20464;-34
2023/03/13 17:04:50;;;;;;;2.90;1.85;;;;;;;16.61;51.33;94878.63;10430426;28;20072;-32
2023/03/13 17:09:51;;;;;;;6.13;2.13;;;;;;;16.62;50.70;94869.38;10425026;28;20412;-34
2023/03/13 17:14:51;;;;;;;8.10;2.10;;;;;;;16.60;52.36;94851.72;10436569;28;20355;-33
2023/03/13 17:19:52;;;;;;;7.00;2.37;;;;;;;16.70;58.34;94865.78;10437884;28;20033;-34
2023/03/13 17:24:52;;;;;;;29.27;5.90;;;;;;;16.75;59.03;94841.25;10432183;28;20037;-34
2023/03/13 17:29:52;;;;;;;20.63;4.87;;;;;;;16.76;59.34;94842.91;10430597;28;20295;-33
2023/03/13 17:34:53;;;;;;;10.70;2.50;;;;;;;16.72;53.29;94827.88;10441172;28;20392;-33
2023/03/13 17:39:53;;;;;;;9.77;2.33;;;;;;;16.69;52.24;94821.19;10438203;28;20283;-36
2023/03/13 17:44:53;;;;;;;7.97;3.33;;;;;;;16.66;52.25;94835.59;10441784;28;20033;-39
2023/03/13 17:49:54;;;;;;;8.37;1.97;;;;;;;16.66;52.19;94816.22;10430492;28;20382;-36
2023/03/13 17:54:54;;;;;;;15.60;2.87;;;;;;;16.50;52.56;94836.78;10422263;28;20091;-35
2023/03/13 17:59:54;;;;;;;16.53;3.00;;;;;;;16.55;54.41;94838.34;10422285;28;20064;-35
2023/03/13 18:04:55;;;;;;;8.23;1.83;;;;;;;16.63;52.38;94815.44;10428897;28;20045;-33
2023/03/13 18:09:55;;;;;;;10.17;1.93;;;;;;;16.63;51.31;94817.97;10423555;28;20087;-34
2023/03/13 18:14:55;;;;;;;11.67;2.63;;;;;;;16.63;51.68;94826.38;10429540;28;20029;-34
2023/03/13 18:19:56;;;;;;;11.27;2.30;;;;;;;16.61;51.88;94818.00;10419881;28;20030;-36
2023/03/13 18:24:59;;;;;;;7.00;1.58;;;;;;;16.62;52.14;94794.41;10430156;28;20031;-34
2023/03/13 18:30:00;;;;;;;9.75;1.80;;;;;;;16.62;51.71;94786.81;10439694;28;20036;-33
2023/03/13 18:35:00;;;;;;;9.33;1.73;;;;;;;16.65;56.17;94779.19;10432270;28;20037;-35
2023/03/13 18:40:00;;;;;;;10.97;1.87;;;;;;;16.74;58.75;94774.72;10426735;28;20029;-35
2023/03/13 18:45:01;;;;;;;15.57;2.15;;;;;;;16.78;59.88;94750.22;10425432;28;20415;-34
2023/03/13 18:50:01;;;;;;;5.45;1.55;;;;;;;16.77;53.81;94748.56;10423595;28;20078;-34
2023/03/13 18:55:02;;;;;;;4.93;1.67;;;;;;;16.70;52.79;94756.34;10424827;28;20048;-34
2023/03/13 19:00:13;;;;;;;7.85;1.20;;;;;;;16.73;53.45;94773.06;10414990;28;20295;-34
2023/03/13 19:05:14;;;;;;;8.50;1.98;;;;;;;16.69;51.64;94765.59;10420157;28;20037;-34
2023/03/13 19:10:20;;;;;;;11.57;1.40;;;;;;;16.71;53.47;94905.34;10413142;28;20067;-34
2023/03/13 19:15:23;;;;;;;5.28;1.40;;;;;;;16.74;51.36;95036.69;10416724;28;20036;-33
2023/03/13 19:20:23;;;;;;;3.90;1.00;;;;;;;16.72;51.26;95099.06;10414500;28;20029;-34
2023/03/13 19:25:23;;;;;;;9.57;1.70;;;;;;;16.70;51.08;95136.13;10421111;28;20044;-36
2023/03/13 19:30:25;;;;;;;6.63;1.60;;;;;;;16.71;51.25;95213.59;10421802;28;20292;-34
2023/03/13 19:35:25;;;;;;;14.57;2.45;;;;;;;16.69;51.32;95205.22;10426701;28;20116;-38
2023/03/13 19:40:27;;;;;;;5.00;1.50;;;;;;;16.70;52.28;95201.00;10424378;28;20033;-34
2023/03/13 19:45:27;;;;;;;5.25;1.20;;;;;;;16.67;51.75;95212.00;10428746;28;20033;-35
2023/03/13 19:50:29;;;;;;;4.93;1.00;;;;;;;16.67;51.29;95228.84;10432387;28;20505;-38
2023/03/13 19:55:30;;;;;;;6.00;1.88;;;;;;;16.74;58.28;95269.16;10423044;28;20022;-34
2023/03/13 20:00:31;;;;;;;8.10;1.60;;;;;;;16.78;59.44;95317.09;10427419;28;20128;-34
2023/03/13 20:05:31;;;;;;;4.68;1.40;;;;;;;16.78;59.18;95336.47;10423874;28;20041;-32
2023/03/13 20:10:32;;;;;;;3.83;1.77;;;;;;;16.73;52.96;95348.34;10425944;28;20052;-33
2023/03/13 20:15:32;;;;;;;13.80;2.30;;;;;;;16.67;52.13;95292.84;10430546;28;20439;-34
2023/03/13 20:20:32;;;;;;;4.43;1.00;;;;;;;16.68;51.56;95329.88;10436659;28;20025;-33
2023/03/13 20:25:33;;;;;;;6.57;0.97;;;;;;;16.67;51.19;95343.38;10434123;28;20034;-34
2023/03/13 20:30:38;;;;;;;3.63;0.70;;;;;;;16.65;50.50;95261.72;10427107;28;20037;-36
2023/03/13 20:35:39;;;;;;;3.88;1.15;;;;;;;16.66;50.81;95240.66;10431877;28;20040;-34
2023/03/13 20:40:39;;;;;;;4.80;0.90;;;;;;;16.68;50.96;95243.97;10435054;28;20037;-34
2023/03/13 20:45:39;;;;;;;2.23;0.90;;;;;;;16.68;50.30;95254.09;10443696;28;20291;-34
2023/03/13 20:50:40;;;;;;;4.00;0.97;;;;;;;16.68;50.35;95254.09;10443277;28;20140;-34
2023/03/13 20:55:40;;;;;;;2.60;0.80;;;;;;;16.67;50.00;95292.84;10435419;28;20049;-34
2023/03/13 21:00:42;;;;;;;3.33;0.77;;;;;;;16.67;50.37;95313.06;10436046;28;20116;-35
2023/03/13 21:05:43;;;;;;;0.93;0.65;;;;;;;16.66;50.30;95286.13;10421480;28;20033;-34
2023/03/13 21:10:43;;;;;;;6.65;1.60;;;;;;;16.71;54.52;95211.06;10431899;28;20394;-34
2023/03/13 21:15:43;;;;;;;2.60;1.20;;;;;;;16.74;61.35;95163.03;10432130;28;20045;-33
2023/03/13 21:20:44;;;;;;;5.17;1.33;;;;;;;16.79;61.42;95247.16;10423463;28;20041;-34
2023/03/13 21:25:51;;;;;;;3.45;1.40;;;;;;;16.75;53.55;95210.19;10430274;28;20033;-34
2023/03/13 21:30:52;;;;;;;4.63;0.80;;;;;;;16.69;51.56;95172.38;10424071;28;20079;-33
2023/03/13 21:35:55;;;;;;;1.45;0.85;;;;;;;16.69;51.08;95159.72;10426673;28;20082;-34
2023/03/13 21:40:57;;;;;;;4.72;1.05;;;;;;;16.62;51.09;95127.84;10424635;28;20034;-34
2023/03/13 21:45:58;;;;;;;3.00;0.75;;;;;;;16.62;50.77;95143.00;10425742;28;20025;-35
2023/03/13 21:50:59;;;;;;;3.15;0.65;;;;;;;16.67;50.63;95163.16;10423956;28;20407;-33
2023/03/13 21:55:59;;;;;;;3.92;1.00;;;;;;;16.66;50.66;95153.91;10425301;28;20036;-38
2023/03/13 22:01:00;;;;;;;2.10;0.60;;;;;;;16.64;50.41;95169.09;10427661;28;20037;-34
2023/03/13 22:06:00;;;;;;;2.15;0.80;;;;;;;16.60;50.59;95179.28;10420666;28;20322;-35
2023/03/13 22:11:00;;;;;;;3.00;0.80;;;;;;;16.63;50.53;95204.50;10429040;28;20038;-34
2023/03/13 22:16:01;;;;;;;1.67;0.70;;;;;;;16.60;50.60;95214.66;10423325;28;20287;-34
2023/03/13 22:21:01;;;;;;;2.00;0.70;;;;;;;16.62;50.28;95223.84;10434810;28;20033;-33
2023/03/13 22:26:02;;;;;;;0.90;0.50;;;;;;;16.53;50.00;95223.19;10426872;28;20041;-34
2023/03/13 22:31:04;;;;;;;6.22;1.08;;;;;;;16.73;60.51;95259.06;10422922;28;20306;-34
2023/03/13 22:36:05;;;;;;;3.35;0.95;;;;;;;16.75;60.81;95279.22;10427057;28;20024;-34
2023/03/13 22:41:08;;;;;;;3.47;1.00;;;;;;;16.74;60.38;95269.97;10422721;28;20029;-35
2023/03/13 22:46:11;;;;;;;1.95;0.70;;;;;;;16.67;53.69;95279.38;10424919;28;20041;-34
2023/03/13 22:51:13;;;;;;;1.38;0.70;;;;;;;16.64;51.61;95272.69;10422302;28;20060;-33
2023/03/13 22:56:13;;;;;;;0.80;0.50;;;;;;;16.64;51.20;95271.84;10423040;28;20030;-37
2023/03/13 23:01:16;;;;;;;1.93;0.60;;;;;;;16.61;51.30;95255.03;10426613;28;20679;-33
2023/03/13 23:06:20;;;;;;;1.10;0.50;;;;;;;16.61;51.06;95239.88;10417978;28;20291;-33
2023/03/13 23:11:20;;;;;;;1.90;0.82;;;;;;;16.61;51.08;95194.41;10424465;28;20040;-35
2023/03/13 23:16:21;;;;;;;2.00;0.50;;;;;;;16.57;50.63;95111.13;10421952;28;20220;-34
2023/03/13 23:21:21;;;;;;;0.63;0.37;;;;;;;16.60;50.40;95093.41;10421285;28;20045;-34
2023/03/13 23:26:21;;;;;;;0.70;0.40;;;;;;;16.59;50.42;95097.59;10426111;28;20041;-35
2023/03/13 23:31:22;;;;;;;1.23;0.55;;;;;;;16.54;50.65;95124.63;10420907;28;20154;-34
2023/03/13 23:36:22;;;;;;;0.57;0.25;;;;;;;16.60;50.46;95129.59;10424265;28;20381;-34